createdAt,value
2022-08-02T00:04:46.766Z,5
2022-08-02T00:14:51.423Z,4
2022-08-02T00:25:17.183Z,5
2022-08-02T00:35:36.701Z,5
2022-08-02T00:45:58.840Z,5
2022-08-02T00:56:12.467Z,5
2022-08-02T01:06:32.789Z,4
2022-08-02T01:16:26.228Z,4
2022-08-02T01:26:34.695Z,5
2022-08-02T01:36:39.328Z,3
2022-08-02T01:46:44.391Z,2
2022-08-02T01:56:49.184Z,3
2022-08-02T02:06:55.180Z,5
2022-08-02T02:17:50.829Z,3
2022-08-02T02:28:07.484Z,4
2022-08-02T02:38:12.984Z,2
2022-08-02T02:48:28.318Z,3
2022-08-02T02:58:39.501Z,4
2022-08-02T03:08:45.644Z,4
2022-08-02T03:18:51.728Z,4
2022-08-02T03:28:56.881Z,4
2022-08-02T03:39:05.239Z,3
2022-08-02T03:49:21.878Z,3
2022-08-02T03:59:19.844Z,4
2022-08-02T04:09:40.086Z,4
2022-08-02T04:19:51.041Z,5
2022-08-02T04:30:29.854Z,4
2022-08-02T04:40:32.905Z,3
2022-08-02T04:50:40.891Z,4
2022-08-02T05:00:51.313Z,3
2022-08-02T05:10:52.455Z,4
2022-08-02T05:20:59.029Z,4
2022-08-02T05:31:06.121Z,5
2022-08-02T05:41:30.050Z,4
2022-08-02T05:51:22.375Z,4
2022-08-02T06:01:28.619Z,2
2022-08-02T06:11:35.644Z,3
2022-08-02T06:23:19.392Z,4
2022-08-02T06:33:13.053Z,3
2022-08-02T06:43:17.687Z,2
2022-08-02T06:53:24.516Z,6
2022-08-02T07:03:30.557Z,4
2022-08-02T07:23:43.158Z,14
2022-08-02T07:37:04.292Z,3
2022-08-02T08:37:36.459Z,5
2022-08-02T09:07:57.448Z,6
2022-08-02T09:18:04.073Z,3
2022-08-02T09:28:07.952Z,4
2022-08-02T09:38:18.976Z,3
2022-08-02T09:48:24.459Z,7
2022-08-02T09:58:32.852Z,5
2022-08-02T10:08:34.769Z,4
2022-08-02T10:19:12.258Z,7
2022-08-02T10:29:08.291Z,4
2022-08-02T10:39:15.570Z,5
2022-08-02T10:59:46.534Z,4
2022-08-02T11:09:51.365Z,4
2022-08-02T11:19:56.959Z,3
2022-08-02T11:30:09.147Z,4
2022-08-02T11:43:15.967Z,4
2022-08-02T11:53:21.224Z,4
2022-08-02T12:03:29.305Z,2
2022-08-02T12:13:36.223Z,6
2022-08-02T12:23:40.205Z,3
2022-08-02T12:33:59.901Z,6
2022-08-02T12:43:59.573Z,6
2022-08-02T12:54:06.602Z,5
2022-08-02T13:04:59.440Z,4
2022-08-02T13:14:53.157Z,4
2022-08-02T13:25:38.172Z,4
2022-08-02T13:35:30.259Z,5
2022-08-02T13:46:00.815Z,6
2022-08-02T13:56:00.017Z,5
2022-08-02T14:06:30.122Z,6
2022-08-02T14:16:22.976Z,3
2022-08-02T14:26:28.059Z,4
2022-08-02T14:36:39.262Z,5
2022-08-02T14:46:40.560Z,4
2022-08-02T14:56:48.287Z,4
2022-08-02T15:06:51.383Z,3
2022-08-02T15:17:27.017Z,5
2022-08-02T15:27:32.485Z,5
2022-08-02T15:37:41.300Z,4
2022-08-02T15:47:47.926Z,5
2022-08-02T15:57:47.999Z,4
2022-08-02T16:07:54.829Z,5
2022-08-02T16:18:35.658Z,3
2022-08-02T16:28:53.027Z,5
2022-08-02T16:38:46.840Z,5
2022-08-02T16:48:56.879Z,3
2022-08-02T16:57:42.525Z,3
2022-08-02T17:00:46.658Z,6
2022-08-02T17:11:03.166Z,6
2022-08-02T17:21:31.867Z,5
2022-08-02T17:31:43.177Z,3
2022-08-02T17:42:31.470Z,3
2022-08-02T17:53:39.268Z,6
2022-08-02T18:02:55.296Z,7
2022-08-02T18:10:56.783Z,3
2022-08-02T18:22:10.226Z,5
2022-08-02T18:29:12.157Z,4
2022-08-02T18:41:12.521Z,4
2022-08-02T18:47:19.917Z,4
2022-08-02T20:45:20.693Z,4
2022-08-02T20:53:25.910Z,6
2022-08-02T21:03:32.202Z,5
2022-08-02T21:15:00.698Z,4
2022-08-02T21:31:06.836Z,15
2022-08-02T21:41:38.696Z,18
2022-08-02T21:50:09.095Z,21
2022-08-02T22:00:29.075Z,16
2022-08-02T22:10:31.572Z,10
2022-08-02T22:26:57.285Z,6
2022-08-02T22:38:15.864Z,5
2022-08-02T22:49:17.459Z,6
2022-08-02T23:00:24.525Z,4
2022-08-02T23:10:19.512Z,4
2022-08-02T23:20:23.151Z,4
2022-08-02T23:30:27.785Z,4
2022-08-02T23:40:39.903Z,5
2022-08-02T23:50:38.268Z,4
